Time;durP1;ratioP1;P1;durP2;ratioP2;P2;SDS_P1;SDS_P2;PMS_P1;PMS_P2;Temp;Humidity;BMP_temperature;BMP_pressure;BME280_temperature;BME280_humidity;BME280_pressure;Samples;Min_cycle;Max_cycle;Signal;HPM_P1;HPM_P2
2022/12/02 00:00:50;;;;;;;;;32.25;29.25;;;;;-146.44;100.00;58906.56;5008729;28;46322;-52
2022/12/02 00:03:21;;;;;;;;;27.75;26.75;;;;;-146.44;100.00;58906.56;5016508;28;45458;-53
2022/12/02 00:05:53;;;;;;;;;38.00;33.25;;;;;-146.44;100.00;58906.56;5016227;28;45466;-50
2022/12/02 00:08:22;;;;;;;;;35.50;31.25;;;;;-146.44;100.00;58906.56;5016974;28;45482;-53
2022/12/02 00:10:50;;;;;;;;;35.00;34.00;;;;;-146.44;100.00;58906.56;5016525;28;45524;-52
2022/12/02 00:13:24;;;;;;;;;41.75;34.50;;;;;-146.44;100.00;58906.56;5016679;28;45573;-53
2022/12/02 00:15:55;;;;;;;;;25.25;25.25;;;;;-146.44;100.00;58906.56;5016817;28;45493;-52
2022/12/02 00:18:20;;;;;;;;;36.50;33.50;;;;;-146.44;100.00;58906.56;5016844;28;45574;-51
2022/12/02 00:20:45;;;;;;;;;37.00;33.00;;;;;-146.44;100.00;58906.56;5016391;28;45561;-54
2022/12/02 00:23:11;;;;;;;;;39.50;34.50;;;;;-146.44;100.00;58906.56;5016558;28;45481;-50
2022/12/02 00:25:36;;;;;;;;;32.75;29.75;;;;;-146.44;100.00;58906.56;5016493;28;45907;-50
2022/12/02 00:28:02;;;;;;;;;42.25;35.00;;;;;-146.44;100.00;58906.56;5016560;28;45557;-50
2022/12/02 00:30:27;;;;;;;;;37.25;32.50;;;;;-146.44;100.00;58906.56;5016518;28;45438;-52
2022/12/02 00:32:53;;;;;;;;;33.00;32.00;;;;;-146.44;100.00;58906.56;5016748;28;45426;-51
2022/12/02 00:35:18;;;;;;;;;37.25;32.25;;;;;-146.44;100.00;58906.56;5016541;28;45464;-54
2022/12/02 00:37:44;;;;;;;;;36.50;27.75;;;;;-146.44;100.00;58906.56;5016198;28;45427;-50
2022/12/02 00:40:10;;;;;;;;;44.00;37.25;;;;;-146.44;100.00;58906.56;5016280;28;45533;-52
2022/12/02 00:42:36;;;;;;;;;42.75;35.50;;;;;-146.44;100.00;58906.56;5014231;28;45478;-49
2022/12/02 00:47:45;;;;;;;;;34.50;33.25;;;;;-146.44;100.00;58906.56;5016376;28;45487;-50
2022/12/02 00:50:11;;;;;;;;;33.75;32.50;;;;;-146.44;100.00;58906.56;5015712;28;50908;-48
2022/12/02 00:52:36;;;;;;;;;45.75;38.50;;;;;-146.44;100.00;58906.56;5016153;28;45459;-53
2022/12/02 00:55:02;;;;;;;;;35.25;34.25;;;;;-146.44;100.00;58906.56;5016497;28;45422;-51
2022/12/02 00:57:27;;;;;;;;;42.25;35.00;;;;;-146.44;100.00;58906.56;5016064;28;45575;-53
2022/12/02 00:59:52;;;;;;;;;38.25;34.75;;;;;-146.44;100.00;58906.56;5015839;28;45989;-54
2022/12/02 01:02:18;;;;;;;;;38.50;35.00;;;;;-146.44;100.00;58906.56;5015935;28;45432;-52
2022/12/02 01:04:43;;;;;;;;;42.00;35.50;;;;;-146.44;100.00;58906.56;5016262;28;45574;-54
2022/12/02 01:07:09;;;;;;;;;33.75;33.00;;;;;-146.44;100.00;58906.56;5016059;28;45533;-50
2022/12/02 01:09:35;;;;;;;;;40.25;35.75;;;;;-146.44;100.00;58906.56;5015802;28;46072;-51
2022/12/02 01:12:00;;;;;;;;;36.75;35.00;;;;;-146.44;100.00;58906.56;5015563;28;45503;-50
2022/12/02 01:14:25;;;;;;;;;41.50;34.75;;;;;-146.44;100.00;58906.56;5015546;28;45539;-50
2022/12/02 01:16:51;;;;;;;;;41.25;34.25;;;;;-146.44;100.00;58906.56;5015521;28;45574;-51
2022/12/02 01:19:17;;;;;;;;;40.75;35.25;;;;;-146.44;100.00;58906.56;5015495;28;45947;-51
2022/12/02 01:21:42;;;;;;;;;42.00;36.00;;;;;-146.44;100.00;58906.56;5015302;28;45519;-51
2022/12/02 01:24:08;;;;;;;;;34.75;34.50;;;;;-146.44;100.00;58906.56;5015574;28;45507;-51
2022/12/02 01:26:33;;;;;;;;;39.50;35.00;;;;;-146.44;100.00;58906.56;5030414;28;46039;-54
2022/12/02 01:28:58;;;;;;;;;36.25;33.50;;;;;-146.44;100.00;58906.56;5015246;28;45454;-50
2022/12/02 01:31:24;;;;;;;;;39.75;34.00;;;;;-146.44;100.00;58906.56;5015740;28;45569;-51
2022/12/02 01:33:49;;;;;;;;;39.25;35.00;;;;;-146.44;100.00;58906.56;5015489;28;45545;-54
2022/12/02 01:36:14;;;;;;;;;44.00;38.00;;;;;-146.44;100.00;58906.56;5015137;28;45508;-53
2022/12/02 01:38:40;;;;;;;;;39.50;34.25;;;;;-146.44;100.00;58906.56;5015354;28;46303;-50
2022/12/02 01:41:06;;;;;;;;;38.75;36.00;;;;;-146.44;100.00;58906.56;5015317;28;45457;-52
2022/12/02 01:43:32;;;;;;;;;41.50;38.00;;;;;-146.44;100.00;58906.56;5015604;28;45552;-53
2022/12/02 01:45:57;;;;;;;;;40.00;36.25;;;;;-146.44;100.00;58906.56;5015209;28;45545;-54
2022/12/02 01:48:23;;;;;;;;;41.25;38.00;;;;;-146.44;100.00;58906.56;5015177;28;45966;-55
2022/12/02 01:50:48;;;;;;;;;46.50;38.50;;;;;-146.44;100.00;58906.56;5015029;28;45450;-53
2022/12/02 01:53:14;;;;;;;;;44.25;37.75;;;;;-146.44;100.00;58906.56;5015194;28;45565;-52
2022/12/02 01:55:40;;;;;;;;;40.75;37.00;;;;;-146.44;100.00;58906.56;5014335;28;45412;-50
2022/12/02 01:58:10;;;;;;;;;40.00;35.25;;;;;-146.44;100.00;58906.56;5015069;28;46315;-52
2022/12/02 02:00:35;;;;;;;;;44.50;37.00;;;;;-146.44;100.00;58906.56;5015076;28;45435;-54
2022/12/02 02:03:00;;;;;;;;;42.00;36.00;;;;;-146.44;100.00;58906.56;5015248;28;45454;-50
2022/12/02 02:05:29;;;;;;;;;49.25;36.50;;;;;-146.44;100.00;58906.56;5015190;28;45533;-54
2022/12/02 02:08:01;;;;;;;;;45.50;36.25;;;;;-146.44;100.00;58906.56;5014994;28;46396;-53
2022/12/02 02:10:26;;;;;;;;;38.75;35.75;;;;;-146.44;100.00;58906.56;5014811;28;45574;-51
2022/12/02 02:12:52;;;;;;;;;36.25;35.00;;;;;-146.44;100.00;58906.56;5014618;28;45417;-51
2022/12/02 02:15:18;;;;;;;;;43.50;38.50;;;;;-146.44;100.00;58906.56;5015131;28;45489;-53
2022/12/02 02:17:44;;;;;;;;;41.50;36.00;;;;;-146.44;100.00;58906.56;5014687;28;46341;-52
2022/12/02 02:20:13;;;;;;;;;44.75;38.75;;;;;-146.44;100.00;58906.56;5014675;28;45454;-54
2022/12/02 02:22:49;;;;;;;;;45.75;34.00;;;;;-146.44;100.00;58906.56;5014636;28;45447;-54
2022/12/02 02:25:16;;;;;;;;;42.00;36.25;;;;;-146.44;100.00;58906.56;5014808;28;45574;-53
2022/12/02 02:27:44;;;;;;;;;40.25;34.00;;;;;-146.44;100.00;58906.56;5014462;28;45485;-54
2022/12/02 02:30:10;;;;;;;;;47.50;39.75;;;;;-146.44;100.00;58906.56;5007286;28;45561;-52
2022/12/02 02:32:35;;;;;;;;;43.00;37.50;;;;;-146.44;100.00;58906.56;5015147;28;45561;-52
2022/12/02 02:35:03;;;;;;;;;42.00;35.75;;;;;-146.44;100.00;58906.56;5014410;28;45616;-52
2022/12/02 02:37:28;;;;;;;;;43.50;36.25;;;;;-146.44;100.00;58906.56;5014560;28;46404;-52
2022/12/02 02:39:53;;;;;;;;;46.75;36.50;;;;;-146.44;100.00;58906.56;5014184;28;45439;-53
2022/12/02 02:42:19;;;;;;;;;44.00;36.25;;;;;-146.44;100.00;58906.56;5014595;28;45802;-51
2022/12/02 02:44:44;;;;;;;;;44.50;38.00;;;;;-146.44;100.00;58906.56;5014774;28;45466;-51
2022/12/02 02:47:10;;;;;;;;;37.00;35.25;;;;;-146.44;100.00;58906.56;5013298;28;45455;-54
2022/12/02 02:49:35;;;;;;;;;46.25;39.25;;;;;-146.44;100.00;58906.56;5014249;28;45421;-50
2022/12/02 02:52:00;;;;;;;;;41.00;36.00;;;;;-146.44;100.00;58906.56;5014293;28;45524;-52
2022/12/02 02:54:26;;;;;;;;;45.00;36.75;;;;;-146.44;100.00;58906.56;5013850;28;45607;-50
2022/12/02 02:56:51;;;;;;;;;36.25;33.75;;;;;-146.44;100.00;58906.56;5014089;28;45524;-51
2022/12/02 02:59:17;;;;;;;;;43.00;37.25;;;;;-146.44;100.00;58906.56;5014117;28;45561;-49
2022/12/02 03:01:46;;;;;;;;;37.50;35.00;;;;;-146.44;100.00;58906.56;5012959;28;45529;-50
2022/12/02 03:04:15;;;;;;;;;33.75;31.00;;;;;-146.44;100.00;58906.56;5014491;28;45554;-49
2022/12/02 03:06:43;;;;;;;;;42.00;36.75;;;;;-146.44;100.00;58906.56;5016404;28;45418;-51
2022/12/02 03:09:12;;;;;;;;;42.75;38.00;;;;;-146.44;100.00;58906.56;5017793;28;45488;-49
2022/12/02 03:11:39;;;;;;;;;50.00;39.25;;;;;-146.44;100.00;58906.56;5017743;28;45576;-50
2022/12/02 03:14:07;;;;;;;;;40.25;34.75;;;;;-146.44;100.00;58906.56;5017838;28;45457;-50
2022/12/02 03:16:32;;;;;;;;;41.75;35.25;;;;;-146.44;100.00;58906.56;5017533;28;46392;-52
2022/12/02 03:18:58;;;;;;;;;38.00;34.00;;;;;-146.44;100.00;58906.56;5017454;28;45558;-55
2022/12/02 03:21:25;;;;;;;;;45.75;38.75;;;;;-146.44;100.00;58906.56;5017655;28;45402;-51
2022/12/02 03:23:54;;;;;;;;;40.75;35.00;;;;;-146.44;100.00;58906.56;5017610;28;45653;-52
2022/12/02 03:26:19;;;;;;;;;40.75;34.25;;;;;-146.44;100.00;58906.56;5017299;28;46311;-54
2022/12/02 03:28:46;;;;;;;;;50.50;41.25;;;;;-146.44;100.00;58906.56;5017390;28;45495;-52
2022/12/02 03:31:12;;;;;;;;;53.25;39.00;;;;;-146.44;100.00;58906.56;5017630;28;45446;-50
2022/12/02 03:33:42;;;;;;;;;40.25;37.25;;;;;-146.44;100.00;58906.56;5017320;28;45609;-49
2022/12/02 03:36:09;;;;;;;;;46.50;38.25;;;;;-146.44;100.00;58906.56;5017263;28;46376;-54
2022/12/02 03:38:35;;;;;;;;;43.50;37.50;;;;;-146.44;100.00;58906.56;5017114;28;45528;-50
2022/12/02 03:41:03;;;;;;;;;42.00;35.50;;;;;-146.44;100.00;58906.56;5017268;28;45466;-51
2022/12/02 03:43:29;;;;;;;;;45.00;37.25;;;;;-146.44;100.00;58906.56;5017335;28;45614;-52
2022/12/02 03:45:55;;;;;;;;;45.00;38.50;;;;;-146.44;100.00;58906.56;5016877;28;46533;-50
2022/12/02 03:48:22;;;;;;;;;39.50;36.25;;;;;-146.44;100.00;58906.56;5017098;28;45612;-51
2022/12/02 03:50:49;;;;;;;;;45.75;37.25;;;;;-146.44;100.00;58906.56;5016956;28;45486;-50
2022/12/02 03:53:15;;;;;;;;;46.50;39.25;;;;;-146.44;100.00;58906.56;5017068;28;45622;-49
2022/12/02 03:55:40;;;;;;;;;41.00;36.25;;;;;-146.44;100.00;58906.56;5016845;28;46174;-50
2022/12/02 03:58:07;;;;;;;;;41.25;36.50;;;;;-146.44;100.00;58906.56;5017002;28;45539;-53
2022/12/02 04:00:34;;;;;;;;;44.00;38.75;;;;;-146.44;100.00;58906.56;5017127;28;45484;-51
2022/12/02 04:02:59;;;;;;;;;44.75;35.00;;;;;-146.44;100.00;58906.56;5016790;28;45677;-52
2022/12/02 04:05:25;;;;;;;;;46.25;38.00;;;;;-146.44;100.00;58906.56;5016739;28;46162;-51
2022/12/02 04:07:50;;;;;;;;;44.00;36.25;;;;;-146.44;100.00;58906.56;5016588;28;45530;-50
2022/12/02 04:10:15;;;;;;;;;46.00;37.50;;;;;-146.44;100.00;58906.56;5017096;28;45802;-51
2022/12/02 04:12:41;;;;;;;;;44.00;36.25;;;;;-146.44;100.00;58906.56;5016902;28;45492;-53
2022/12/02 04:15:06;;;;;;;;;42.00;36.00;;;;;-146.44;100.00;58906.56;5016452;28;47165;-53
2022/12/02 04:17:32;;;;;;;;;41.25;37.25;;;;;-146.44;100.00;58906.56;5015200;28;46103;-52
2022/12/02 04:19:57;;;;;;;;;39.00;35.75;;;;;-146.44;100.00;58906.56;5016677;28;45558;-52
2022/12/02 04:22:22;;;;;;;;;44.50;38.00;;;;;-146.44;100.00;58906.56;5015891;28;45537;-50
2022/12/02 04:24:48;;;;;;;;;47.75;39.00;;;;;-146.44;100.00;58906.56;5016218;28;45507;-50
2022/12/02 04:27:13;;;;;;;;;41.25;35.50;;;;;-146.44;100.00;58906.56;5016580;28;45415;-53
2022/12/02 04:29:38;;;;;;;;;44.75;39.25;;;;;-146.44;100.00;58906.56;5016572;28;45534;-50
2022/12/02 04:32:04;;;;;;;;;49.00;38.25;;;;;-146.44;100.00;58906.56;5016803;28;45652;-52
2022/12/02 04:34:29;;;;;;;;;49.00;38.25;;;;;-146.44;100.00;58906.56;5016463;28;46121;-52
2022/12/02 04:36:54;;;;;;;;;52.50;39.75;;;;;-146.44;100.00;58906.56;5016142;28;45453;-54
2022/12/02 04:39:20;;;;;;;;;45.00;39.00;;;;;-146.44;100.00;58906.56;5016411;28;45504;-54
2022/12/02 04:41:45;;;;;;;;;45.00;38.75;;;;;-146.44;100.00;58906.56;5016424;28;45461;-50
2022/12/02 04:44:10;;;;;;;;;48.75;39.25;;;;;-146.44;100.00;58906.56;5016177;28;45735;-52
2022/12/02 04:46:36;;;;;;;;;41.50;35.00;;;;;-146.44;100.00;58906.56;5016099;28;45511;-51
2022/12/02 04:49:01;;;;;;;;;42.50;38.00;;;;;-146.44;100.00;58906.56;5015950;28;46955;-53
2022/12/02 04:51:26;;;;;;;;;46.25;37.75;;;;;-146.44;100.00;58906.56;5016117;28;45582;-52
2022/12/02 04:53:52;;;;;;;;;43.25;37.75;;;;;-146.44;100.00;58906.56;5016096;28;46205;-51
2022/12/02 04:56:17;;;;;;;;;39.00;35.25;;;;;-146.44;100.00;58906.56;5031371;28;45474;-51
2022/12/02 04:58:42;;;;;;;;;41.00;36.00;;;;;-146.44;100.00;58906.56;5016204;28;45521;-50
2022/12/02 05:01:07;;;;;;;;;37.25;33.50;;;;;-146.44;100.00;58906.56;5015992;28;45411;-53
2022/12/02 05:03:33;;;;;;;;;41.50;37.25;;;;;-146.44;100.00;58906.56;5015727;28;45947;-53
2022/12/02 05:05:58;;;;;;;;;42.50;36.00;;;;;-146.44;100.00;58906.56;5016286;28;45711;-53
2022/12/02 05:08:23;;;;;;;;;43.50;35.50;;;;;-146.44;100.00;58906.56;5015873;28;45478;-53
2022/12/02 05:10:49;;;;;;;;;39.75;37.00;;;;;-146.44;100.00;58906.56;5016179;28;45525;-51
2022/12/02 05:13:14;;;;;;;;;40.50;36.00;;;;;-146.44;100.00;58906.56;5030856;28;47382;-50
2022/12/02 05:15:39;;;;;;;;;47.25;40.50;;;;;-146.44;100.00;58906.56;5015911;28;45492;-54
2022/12/02 05:18:05;;;;;;;;;38.50;31.50;;;;;-146.44;100.00;58906.56;5015929;28;45467;-54
2022/12/02 05:20:30;;;;;;;;;45.50;38.00;;;;;-146.44;100.00;58906.56;5016046;28;45680;-54
2022/12/02 05:22:55;;;;;;;;;47.00;38.75;;;;;-146.44;100.00;58906.56;5015661;28;46034;-52
2022/12/02 05:25:21;;;;;;;;;45.00;38.50;;;;;-146.44;100.00;58906.56;5014728;28;52023;-50
2022/12/02 05:27:46;;;;;;;;;40.00;35.50;;;;;-146.44;100.00;58906.56;5015826;28;45472;-51
2022/12/02 05:30:12;;;;;;;;;47.25;40.50;;;;;-146.44;100.00;58906.56;5014562;28;45534;-51
2022/12/02 05:32:37;;;;;;;;;38.00;34.50;;;;;-146.44;100.00;58906.56;5015929;28;47260;-54
2022/12/02 05:35:03;;;;;;;;;43.00;37.50;;;;;-146.44;100.00;58906.56;5015172;28;45473;-52
2022/12/02 05:37:28;;;;;;;;;43.25;37.25;;;;;-146.44;100.00;58906.56;5015553;28;45494;-53
2022/12/02 05:39:54;;;;;;;;;41.25;37.50;;;;;-146.44;100.00;58906.56;5015741;28;45660;-53
2022/12/02 05:42:19;;;;;;;;;43.50;36.50;;;;;-146.44;100.00;58906.56;5013964;28;47100;-55
2022/12/02 05:44:44;;;;;;;;;49.25;39.00;;;;;-146.44;100.00;58906.56;5015389;28;45415;-54
2022/12/02 05:47:15;;;;;;;;;46.75;38.50;;;;;-146.44;100.00;58906.56;5015488;28;45921;-52
2022/12/02 05:49:43;;;;;;;;;47.00;37.25;;;;;-146.44;100.00;58906.56;5015393;28;45536;-50
2022/12/02 05:52:28;;;;;;;;;42.50;37.25;;;;;-146.44;100.00;58906.56;5014997;28;46229;-54
2022/12/02 05:54:57;;;;;;;;;41.25;34.00;;;;;-146.44;100.00;58906.56;5030447;28;45563;-51
2022/12/02 05:57:27;;;;;;;;;48.50;38.75;;;;;-146.44;100.00;58906.56;5015280;28;45541;-53
2022/12/02 06:00:08;;;;;;;;;48.75;40.25;;;;;-146.44;100.00;58906.56;5014937;28;45667;-51
2022/12/02 06:02:51;;;;;;;;;56.75;43.00;;;;;-146.44;100.00;58906.56;5014862;28;45527;-50
2022/12/02 06:05:30;;;;;;;;;55.50;41.75;;;;;-146.44;100.00;58906.56;5015034;28;45517;-54
2022/12/02 06:08:09;;;;;;;;;50.25;39.50;;;;;-146.44;100.00;58906.56;5015057;28;45564;-50
2022/12/02 06:10:37;;;;;;;;;45.75;39.25;;;;;-146.44;100.00;58906.56;5015110;28;45443;-53
2022/12/02 06:13:21;;;;;;;;;52.00;40.00;;;;;-146.44;100.00;58906.56;5014394;28;45509;-50
2022/12/02 06:15:48;;;;;;;;;42.75;37.75;;;;;-146.44;100.00;58906.56;5014528;28;45411;-51
2022/12/02 06:18:18;;;;;;;;;56.50;42.75;;;;;-146.44;100.00;58906.56;5014866;28;45509;-53
2022/12/02 06:20:45;;;;;;;;;51.00;41.00;;;;;-146.44;100.00;58906.56;5014825;28;45448;-49
2022/12/02 06:23:16;;;;;;;;;54.25;43.25;;;;;-146.44;100.00;58906.56;5014594;28;45952;-51
2022/12/02 06:25:43;;;;;;;;;48.75;39.00;;;;;-146.44;100.00;58906.56;5014413;28;45521;-52
2022/12/02 06:28:17;;;;;;;;;47.25;40.75;;;;;-146.44;100.00;58906.56;5014556;28;45425;-50
2022/12/02 06:30:42;;;;;;;;;44.25;37.50;;;;;-146.44;100.00;58906.56;5014782;28;45482;-50
2022/12/02 06:33:20;;;;;;;;;49.25;42.00;;;;;-146.44;100.00;58906.56;5014774;28;45567;-48
2022/12/02 06:35:45;;;;;;;;;50.50;41.75;;;;;-146.44;100.00;58906.56;5014537;28;45655;-51
2022/12/02 06:38:26;;;;;;;;;50.75;41.75;;;;;-146.44;100.00;58906.56;5014483;28;45478;-50
2022/12/02 06:40:51;;;;;;;;;48.50;37.25;;;;;-146.44;100.00;58906.56;5014177;28;45411;-51
2022/12/02 06:43:25;;;;;;;;;53.25;39.75;;;;;-146.44;100.00;58906.56;5014298;28;45584;-51
2022/12/02 06:45:50;;;;;;;;;51.25;41.75;;;;;-146.44;100.00;58906.56;5014206;28;46122;-50
2022/12/02 06:48:18;;;;;;;;;55.25;41.50;;;;;-146.44;100.00;58906.56;5014081;28;50381;-48
2022/12/02 06:50:46;;;;;;;;;50.25;41.00;;;;;-146.44;100.00;58906.56;5014536;28;45562;-51
2022/12/02 06:53:31;;;;;;;;;51.50;40.25;;;;;-146.44;100.00;58906.56;5014119;28;45781;-50
2022/12/02 06:56:18;;;;;;;;;51.50;42.00;;;;;-146.44;100.00;58906.56;5014223;28;45618;-49
2022/12/02 06:58:54;;;;;;;;;48.50;41.50;;;;;-146.44;100.00;58906.56;5014474;28;45464;-52
2022/12/02 07:01:27;;;;;;;;;55.50;45.25;;;;;-146.44;100.00;58906.56;5014082;28;45506;-51
2022/12/02 07:04:24;;;;;;;;;52.75;42.25;;;;;-146.44;100.00;58906.56;5014139;28;45812;-49
2022/12/02 07:06:51;;;;;;;;;56.75;43.75;;;;;-146.44;100.00;58906.56;5014105;28;45565;-49
2022/12/02 07:09:36;;;;;;;;;51.00;39.50;;;;;-146.44;100.00;58906.56;5014222;28;45556;-51
2022/12/02 07:12:02;;;;;;;;;50.75;41.00;;;;;-146.44;100.00;58906.56;5014151;28;45489;-51
2022/12/02 07:14:43;;;;;;;;;45.00;39.25;;;;;-146.44;100.00;58906.56;5013575;28;46844;-50
2022/12/02 07:17:15;;;;;;;;;49.00;41.25;;;;;-146.44;100.00;58906.56;5014077;28;45607;-53
2022/12/02 07:19:47;;;;;;;;;52.50;41.25;;;;;-146.44;100.00;58906.56;5013582;28;45484;-49
2022/12/02 07:22:16;;;;;;;;;54.50;41.00;;;;;-146.44;100.00;58906.56;5013953;28;45509;-48
2022/12/02 07:24:52;;;;;;;;;53.50;41.00;;;;;-146.44;100.00;58906.56;5013739;28;46482;-50
2022/12/02 07:27:39;;;;;;;;;46.75;37.25;;;;;-146.44;100.00;58906.56;5028990;28;45464;-47
2022/12/02 07:30:38;;;;;;;;;57.00;41.50;;;;;-146.44;100.00;58906.56;5013952;28;45535;-54
2022/12/02 07:33:04;;;;;;;;;52.00;44.00;;;;;-146.44;100.00;58906.56;5012932;28;45460;-53
2022/12/02 07:35:29;;;;;;;;;45.00;38.50;;;;;-146.44;100.00;58906.56;5013428;28;45418;-51
2022/12/02 07:37:54;;;;;;;;;48.75;41.75;;;;;-146.44;100.00;58906.56;5013413;28;50981;-50
2022/12/02 07:40:20;;;;;;;;;44.25;39.75;;;;;-146.44;100.00;58906.56;5014012;28;45447;-50
2022/12/02 07:42:45;;;;;;;;;48.75;41.00;;;;;-146.44;100.00;58906.56;5013863;28;45583;-53
2022/12/02 07:45:16;;;;;;;;;54.25;42.75;;;;;-146.44;100.00;58906.56;5013949;28;45493;-51
2022/12/02 07:47:42;;;;;;;;;52.25;41.50;;;;;-146.44;100.00;58906.56;5013550;28;45496;-52
2022/12/02 07:50:08;;;;;;;;;58.00;46.50;;;;;-146.44;100.00;58906.56;5013512;28;45915;-51
2022/12/02 07:52:34;;;;;;;;;60.25;48.50;;;;;-146.44;100.00;58906.56;5013993;28;45479;-48
2022/12/02 07:55:00;;;;;;;;;51.75;41.75;;;;;-146.44;100.00;58906.56;5032141;28;45461;-51
2022/12/02 07:57:25;;;;;;;;;52.00;41.00;;;;;-146.44;100.00;58906.56;5017012;28;45491;-51
2022/12/02 07:59:51;;;;;;;;;53.75;42.75;;;;;-146.44;100.00;58906.56;5016828;28;45535;-50
2022/12/02 08:02:16;;;;;;;;;47.50;40.25;;;;;-146.44;100.00;58906.56;5016762;28;46081;-51
2022/12/02 08:04:41;;;;;;;;;48.75;40.00;;;;;-146.44;100.00;58906.56;5016387;28;45531;-54
2022/12/02 08:07:07;;;;;;;;;55.00;45.25;;;;;-146.44;100.00;58906.56;5016878;28;45462;-52
2022/12/02 08:09:32;;;;;;;;;47.25;40.25;;;;;-146.44;100.00;58906.56;5016775;28;45621;-47
2022/12/02 08:11:57;;;;;;;;;55.50;42.50;;;;;-146.44;100.00;58906.56;5016783;28;45515;-47
2022/12/02 08:14:23;;;;;;;;;48.00;40.50;;;;;-146.44;100.00;58906.56;5016426;28;46636;-52
2022/12/02 08:16:48;;;;;;;;;42.75;39.00;;;;;-146.44;100.00;58906.56;5016652;28;45640;-50
2022/12/02 08:19:13;;;;;;;;;48.00;41.50;;;;;-146.44;100.00;58906.56;5016662;28;45488;-49
2022/12/02 08:21:39;;;;;;;;;53.00;43.25;;;;;-146.44;100.00;58906.56;5016648;28;45408;-50
2022/12/02 08:24:06;;;;;;;;;56.25;43.00;;;;;-146.44;100.00;58906.56;5016482;28;45541;-55
2022/12/02 08:26:31;;;;;;;;;53.00;42.75;;;;;-146.44;100.00;58906.56;5016173;28;45599;-48
2022/12/02 08:28:56;;;;;;;;;49.75;43.25;;;;;-146.44;100.00;58906.56;5016630;28;45461;-50
2022/12/02 08:31:22;;;;;;;;;53.25;44.50;;;;;-146.44;100.00;58906.56;5016885;28;45454;-50
2022/12/02 08:33:48;;;;;;;;;58.75;47.00;;;;;-146.44;100.00;58906.56;5016607;28;45566;-54
2022/12/02 08:36:14;;;;;;;;;53.75;41.50;;;;;-146.44;100.00;58906.56;5016036;28;45436;-51
2022/12/02 08:38:40;;;;;;;;;53.50;44.00;;;;;-146.44;100.00;58906.56;5015742;28;45461;-51
2022/12/02 08:41:05;;;;;;;;;56.00;45.25;;;;;-146.44;100.00;58906.56;5015338;28;45418;-53
2022/12/02 08:43:31;;;;;;;;;51.75;42.75;;;;;-146.44;100.00;58906.56;5015238;28;45511;-54
2022/12/02 08:45:56;;;;;;;;;52.50;41.75;;;;;-146.44;100.00;58906.56;5014170;28;48312;-54
2022/12/02 08:48:21;;;;;;;;;60.50;46.50;;;;;-146.44;100.00;58906.56;5015419;28;45537;-52
2022/12/02 08:50:47;;;;;;;;;54.75;45.75;;;;;-146.44;100.00;58906.56;5015290;28;45454;-52
2022/12/02 08:53:12;;;;;;;;;52.00;43.25;;;;;-146.44;100.00;58906.56;5015381;28;46045;-50
2022/12/02 08:55:37;;;;;;;;;58.50;47.25;;;;;-146.44;100.00;58906.56;5015626;28;45464;-49
2022/12/02 08:58:03;;;;;;;;;54.00;43.75;;;;;-146.44;100.00;58906.56;5015182;28;45892;-52
2022/12/02 09:00:28;;;;;;;;;56.75;45.00;;;;;-146.44;100.00;58906.56;5015319;28;45612;-48
2022/12/02 09:02:53;;;;;;;;;54.00;43.25;;;;;-146.44;100.00;58906.56;5030332;28;46987;-49
2022/12/02 09:05:18;;;;;;;;;56.75;46.50;;;;;-146.44;100.00;58906.56;5014897;28;45512;-49
2022/12/02 09:07:44;;;;;;;;;54.75;44.75;;;;;-146.44;100.00;58906.56;5015169;28;45483;-50
2022/12/02 09:10:11;;;;;;;;;54.25;46.00;;;;;-146.44;100.00;58906.56;5015185;28;48222;-51
2022/12/02 09:12:36;;;;;;;;;48.50;42.50;;;;;-146.44;100.00;58906.56;5015145;28;46815;-49
2022/12/02 09:15:02;;;;;;;;;55.00;42.75;;;;;-146.44;100.00;58906.56;5015103;28;45592;-47
2022/12/02 09:17:27;;;;;;;;;56.00;45.00;;;;;-146.44;100.00;58906.56;5015400;28;45372;-50
2022/12/02 09:19:53;;;;;;;;;51.00;43.25;;;;;-146.44;100.00;58906.56;5014926;28;45529;-48
2022/12/02 09:22:18;;;;;;;;;57.00;45.50;;;;;-146.44;100.00;58906.56;5014879;28;45527;-49
2022/12/02 09:24:44;;;;;;;;;61.00;48.50;;;;;-146.44;100.00;58906.56;5014754;28;45500;-50
2022/12/02 09:27:09;;;;;;;;;54.00;41.75;;;;;-146.44;100.00;58906.56;5015103;28;45469;-52
2022/12/02 09:29:34;;;;;;;;;53.25;43.75;;;;;-146.44;100.00;58906.56;5015005;28;45486;-51
2022/12/02 09:32:00;;;;;;;;;55.00;44.25;;;;;-146.44;100.00;58906.56;5014423;28;45529;-52
2022/12/02 09:34:25;;;;;;;;;53.75;43.00;;;;;-146.44;100.00;58906.56;5015376;28;45584;-52
2022/12/02 09:36:50;;;;;;;;;55.25;43.25;;;;;-146.44;100.00;58906.56;5014960;28;45545;-53
2022/12/02 09:39:16;;;;;;;;;55.50;45.25;;;;;-146.44;100.00;58906.56;5014861;28;45501;-51
2022/12/02 09:41:42;;;;;;;;;63.50;45.75;;;;;-146.44;100.00;58906.56;5014515;28;49760;-53
2022/12/02 09:44:07;;;;;;;;;56.25;46.75;;;;;-146.44;100.00;58906.56;5014643;28;45578;-50
2022/12/02 09:46:33;;;;;;;;;60.50;48.75;;;;;-146.44;100.00;58906.56;5014700;28;46118;-51
2022/12/02 09:48:59;;;;;;;;;56.00;46.25;;;;;-146.44;100.00;58906.56;5014767;28;45580;-51
2022/12/02 09:51:24;;;;;;;;;62.75;49.00;;;;;-146.44;100.00;58906.56;5014326;28;45533;-49
2022/12/02 09:53:50;;;;;;;;;61.75;48.75;;;;;-146.44;100.00;58906.56;5014259;28;45447;-49
2022/12/02 09:56:18;;;;;;;;;62.00;49.75;;;;;-146.44;100.00;58906.56;5014468;28;45457;-51
2022/12/02 09:58:46;;;;;;;;;56.50;45.75;;;;;-146.44;100.00;58906.56;5014706;28;45458;-52
2022/12/02 10:01:13;;;;;;;;;53.00;45.25;;;;;-146.44;100.00;58906.56;5013005;28;46263;-52
2022/12/02 10:03:39;;;;;;;;;62.75;46.75;;;;;-146.44;100.00;58906.56;5014378;28;45619;-51
2022/12/02 10:06:11;;;;;;;;;56.75;44.75;;;;;-146.44;100.00;58906.56;5014337;28;45439;-51
2022/12/02 10:08:37;;;;;;;;;60.00;47.75;;;;;-146.44;100.00;58906.56;5014507;28;45466;-50
2022/12/02 10:11:04;;;;;;;;;60.00;47.25;;;;;-146.44;100.00;58906.56;5014054;28;45442;-51
2022/12/02 10:13:36;;;;;;;;;54.50;42.00;;;;;-146.44;100.00;58906.56;5014288;28;45426;-51
2022/12/02 10:16:10;;;;;;;;;62.50;49.25;;;;;-146.44;100.00;58906.56;5013887;28;45577;-52
2022/12/02 10:18:35;;;;;;;;;63.00;49.25;;;;;-146.44;100.00;58906.56;5014274;28;45523;-53
2022/12/02 10:21:00;;;;;;;;;58.50;46.50;;;;;-146.44;100.00;58906.56;5013920;28;46275;-51
2022/12/02 10:23:27;;;;;;;;;58.75;47.50;;;;;-146.44;100.00;58906.56;5013959;28;48819;-49
2022/12/02 10:26:11;;;;;;;;;61.00;46.75;;;;;-146.44;100.00;58906.56;5014105;28;45790;-50
2022/12/02 10:28:38;;;;;;;;;58.00;48.25;;;;;-146.44;100.00;58906.56;5013963;28;45409;-50
2022/12/02 10:31:14;;;;;;;;;54.75;45.25;;;;;-146.44;100.00;58906.56;5013751;28;46066;-51
2022/12/02 10:34:01;;;;;;;;;61.00;47.75;;;;;-146.44;100.00;58906.56;5014256;28;45494;-51
2022/12/02 10:36:38;;;;;;;;;59.00;48.50;;;;;-146.44;100.00;58906.56;5014108;28;45458;-54
2022/12/02 10:39:18;;;;;;;;;59.25;50.00;;;;;-146.44;100.00;58906.56;5013883;28;45450;-51
2022/12/02 10:41:44;;;;;;;;;69.25;51.25;;;;;-146.44;100.00;58906.56;5013750;28;46090;-50
2022/12/02 10:44:18;;;;;;;;;57.25;45.00;;;;;-146.44;100.00;58906.56;5013776;28;45414;-49
2022/12/02 10:46:44;;;;;;;;;60.25;47.75;;;;;-146.44;100.00;58906.56;5013884;28;45463;-52
2022/12/02 10:49:26;;;;;;;;;60.00;46.00;;;;;-146.44;100.00;58906.56;5013596;28;45533;-50
2022/12/02 10:51:53;;;;;;;;;61.25;46.00;;;;;-146.44;100.00;58906.56;5013592;28;45485;-50
2022/12/02 10:54:28;;;;;;;;;59.50;45.50;;;;;-146.44;100.00;58906.56;5013534;28;45551;-50
2022/12/02 10:56:55;;;;;;;;;63.00;49.00;;;;;-146.44;100.00;58906.56;5013858;28;45509;-49
2022/12/02 10:59:21;;;;;;;;;61.50;47.50;;;;;-146.44;100.00;58906.56;5013451;28;45589;-50